sensor_id;sensor_type;location;lat;lon;timestamp;pressure;altitude;pressure_sealevel;temperature;humidity
13068;BME280;6600;51.362;6.686;2023-04-25T00:02:15;100583.78;;;7.67;96.59
13068;BME280;6600;51.362;6.686;2023-04-25T00:04:41;100586.69;;;7.65;96.94
13068;BME280;6600;51.362;6.686;2023-04-25T00:07:06;100587.25;;;7.60;97.09
13068;BME280;6600;51.362;6.686;2023-04-25T00:09:31;100578.44;;;7.60;97.20
13068;BME280;6600;51.362;6.686;2023-04-25T00:11:57;100581.69;;;7.55;97.29
13068;BME280;6600;51.362;6.686;2023-04-25T00:14:22;100589.09;;;7.53;97.50
13068;BME280;6600;51.362;6.686;2023-04-25T00:16:48;100587.03;;;7.62;97.65
13068;BME280;6600;51.362;6.686;2023-04-25T00:19:13;100594.88;;;7.63;97.10
13068;BME280;6600;51.362;6.686;2023-04-25T00:21:39;100587.25;;;7.60;97.42
13068;BME280;6600;51.362;6.686;2023-04-25T00:24:06;100596.13;;;7.68;97.40
13068;BME280;6600;51.362;6.686;2023-04-25T00:26:33;100593.66;;;7.73;97.26
13068;BME280;6600;51.362;6.686;2023-04-25T00:28:59;100586.69;;;7.72;97.32
13068;BME280;6600;51.362;6.686;2023-04-25T00:31:24;100592.88;;;7.79;97.93
13068;BME280;6600;51.362;6.686;2023-04-25T00:33:49;100599.44;;;7.83;97.29
13068;BME280;6600;51.362;6.686;2023-04-25T00:36:15;100591.84;;;7.80;97.22
13068;BME280;6600;51.362;6.686;2023-04-25T00:38:40;100591.63;;;7.75;97.37
13068;BME280;6600;51.362;6.686;2023-04-25T00:41:07;100593.31;;;7.89;96.92
13068;BME280;6600;51.362;6.686;2023-04-25T00:43:33;100591.69;;;7.94;97.35
13068;BME280;6600;51.362;6.686;2023-04-25T00:46:00;100592.09;;;7.98;96.98
13068;BME280;6600;51.362;6.686;2023-04-25T00:48:26;100587.97;;;7.89;96.97
13068;BME280;6600;51.362;6.686;2023-04-25T00:50:53;100593.72;;;7.86;96.75
13068;BME280;6600;51.362;6.686;2023-04-25T00:53:23;100588.16;;;7.81;96.83
13068;BME280;6600;51.362;6.686;2023-04-25T00:55:49;100586.56;;;7.93;96.59
13068;BME280;6600;51.362;6.686;2023-04-25T00:58:17;100582.66;;;7.95;96.97
13068;BME280;6600;51.362;6.686;2023-04-25T01:00:44;100579.97;;;7.89;96.52
13068;BME280;6600;51.362;6.686;2023-04-25T01:03:10;100581.84;;;7.95;96.48
13068;BME280;6600;51.362;6.686;2023-04-25T01:05:35;100581.59;;;7.90;96.58
13068;BME280;6600;51.362;6.686;2023-04-25T01:08:01;100590.44;;;7.97;96.53
13068;BME280;6600;51.362;6.686;2023-04-25T01:10:26;100589.84;;;7.95;96.47
13068;BME280;6600;51.362;6.686;2023-04-25T01:12:52;100596.59;;;7.97;96.82
13068;BME280;6600;51.362;6.686;2023-04-25T01:15:17;100596.63;;;8.04;96.40
13068;BME280;6600;51.362;6.686;2023-04-25T01:17:43;100601.56;;;8.07;96.46
13068;BME280;6600;51.362;6.686;2023-04-25T01:20:10;100598.28;;;8.05;96.87
13068;BME280;6600;51.362;6.686;2023-04-25T01:22:36;100601.53;;;7.94;96.59
13068;BME280;6600;51.362;6.686;2023-04-25T01:25:02;100598.25;;;7.92;96.76
13068;BME280;6600;51.362;6.686;2023-04-25T01:27:27;100601.31;;;7.89;96.87
13068;BME280;6600;51.362;6.686;2023-04-25T01:29:54;100600.28;;;7.90;97.28
13068;BME280;6600;51.362;6.686;2023-04-25T01:32:19;100603.19;;;7.95;97.11
13068;BME280;6600;51.362;6.686;2023-04-25T01:34:45;100600.06;;;7.85;97.36
13068;BME280;6600;51.362;6.686;2023-04-25T01:37:11;100607.50;;;7.96;97.07
13068;BME280;6600;51.362;6.686;2023-04-25T01:39:36;100604.84;;;7.96;97.62
13068;BME280;6600;51.362;6.686;2023-04-25T01:42:02;100610.16;;;7.96;97.21
13068;BME280;6600;51.362;6.686;2023-04-25T01:44:27;100618.34;;;7.94;97.72
13068;BME280;6600;51.362;6.686;2023-04-25T01:46:53;100610.78;;;7.98;97.92
13068;BME280;6600;51.362;6.686;2023-04-25T01:49:19;100618.75;;;7.91;97.59
13068;BME280;6600;51.362;6.686;2023-04-25T01:51:44;100614.69;;;7.95;97.48
13068;BME280;6600;51.362;6.686;2023-04-25T01:54:10;100617.13;;;7.97;97.62
13068;BME280;6600;51.362;6.686;2023-04-25T01:56:37;100615.72;;;8.01;97.72
13068;BME280;6600;51.362;6.686;2023-04-25T01:59:04;100624.53;;;8.01;97.71
13068;BME280;6600;51.362;6.686;2023-04-25T02:01:30;100632.72;;;8.00;97.76
13068;BME280;6600;51.362;6.686;2023-04-25T02:03:55;100636.44;;;7.99;97.55
13068;BME280;6600;51.362;6.686;2023-04-25T02:06:21;100637.06;;;8.01;98.06
13068;BME280;6600;51.362;6.686;2023-04-25T02:08:46;100623.50;;;7.96;97.75
13068;BME280;6600;51.362;6.686;2023-04-25T02:11:11;100626.19;;;7.96;97.93
13068;BME280;6600;51.362;6.686;2023-04-25T02:13:37;100635.34;;;7.87;98.10
13068;BME280;6600;51.362;6.686;2023-04-25T02:16:02;100633.34;;;7.89;98.15
13068;BME280;6600;51.362;6.686;2023-04-25T02:18:27;100638.88;;;7.94;98.02
13068;BME280;6600;51.362;6.686;2023-04-25T02:20:53;100641.34;;;7.89;98.11
13068;BME280;6600;51.362;6.686;2023-04-25T02:23:18;100640.28;;;7.90;98.00
13068;BME280;6600;51.362;6.686;2023-04-25T02:25:44;100636.63;;;7.91;98.42
13068;BME280;6600;51.362;6.686;2023-04-25T02:28:09;100641.34;;;7.89;98.35
13068;BME280;6600;51.362;6.686;2023-04-25T02:30:35;100643.38;;;7.87;98.57
13068;BME280;6600;51.362;6.686;2023-04-25T02:33:01;100636.41;;;7.86;97.91
13068;BME280;6600;51.362;6.686;2023-04-25T02:35:26;100642.75;;;7.85;98.82
13068;BME280;6600;51.362;6.686;2023-04-25T02:37:51;100642.91;;;7.77;98.68
13068;BME280;6600;51.362;6.686;2023-04-25T02:40:17;100637.97;;;7.74;98.67
13068;BME280;6600;51.362;6.686;2023-04-25T02:42:42;100644.56;;;7.78;98.69
13068;BME280;6600;51.362;6.686;2023-04-25T02:45:08;100647.63;;;7.75;98.74
13068;BME280;6600;51.362;6.686;2023-04-25T02:47:33;100644.13;;;7.68;99.09
13068;BME280;6600;51.362;6.686;2023-04-25T02:49:59;100649.06;;;7.71;99.41
13068;BME280;6600;51.362;6.686;2023-04-25T02:52:24;100638.34;;;7.64;99.26
13068;BME280;6600;51.362;6.686;2023-04-25T02:54:50;100644.53;;;7.65;99.38
13068;BME280;6600;51.362;6.686;2023-04-25T02:57:15;100640.78;;;7.59;99.47
13068;BME280;6600;51.362;6.686;2023-04-25T02:59:41;100636.88;;;7.55;99.56
13068;BME280;6600;51.362;6.686;2023-04-25T03:02:06;100644.81;;;7.48;99.88
13068;BME280;6600;51.362;6.686;2023-04-25T03:04:31;100644.41;;;7.45;100.00
13068;BME280;6600;51.362;6.686;2023-04-25T03:06:58;100639.28;;;7.43;100.00
13068;BME280;6600;51.362;6.686;2023-04-25T03:09:24;100642.13;;;7.42;100.00
13068;BME280;6600;51.362;6.686;2023-04-25T03:11:49;100638.25;;;7.44;100.00
13068;BME280;6600;51.362;6.686;2023-04-25T03:14:14;100640.72;;;7.46;100.00
13068;BME280;6600;51.362;6.686;2023-04-25T03:16:40;100644.81;;;7.48;100.00
13068;BME280;6600;51.362;6.686;2023-04-25T03:19:06;100640.53;;;7.47;100.00
13068;BME280;6600;51.362;6.686;2023-04-25T03:21:32;100638.69;;;7.48;100.00
13068;BME280;6600;51.362;6.686;2023-04-25T03:23:59;100645.88;;;7.47;100.00
13068;BME280;6600;51.362;6.686;2023-04-25T03:26:24;100639.50;;;7.48;100.00
13068;BME280;6600;51.362;6.686;2023-04-25T03:28:50;100647.50;;;7.48;100.00
13068;BME280;6600;51.362;6.686;2023-04-25T03:31:15;100653.00;;;7.40;100.00
13068;BME280;6600;51.362;6.686;2023-04-25T03:33:41;100656.94;;;7.44;100.00
13068;BME280;6600;51.362;6.686;2023-04-25T03:36:06;100651.34;;;7.39;100.00
13068;BME280;6600;51.362;6.686;2023-04-25T03:38:32;100646.00;;;7.39;100.00
13068;BME280;6600;51.362;6.686;2023-04-25T03:40:57;100656.22;;;7.29;100.00
13068;BME280;6600;51.362;6.686;2023-04-25T03:43:22;100652.13;;;7.33;100.00
13068;BME280;6600;51.362;6.686;2023-04-25T03:45:48;100661.97;;;7.33;100.00
13068;BME280;6600;51.362;6.686;2023-04-25T03:48:13;100652.69;;;7.22;100.00
13068;BME280;6600;51.362;6.686;2023-04-25T03:50:38;100650.88;;;7.29;100.00
13068;BME280;6600;51.362;6.686;2023-04-25T03:53:04;100650.69;;;7.31;100.00
13068;BME280;6600;51.362;6.686;2023-04-25T03:55:29;100659.50;;;7.31;100.00
13068;BME280;6600;51.362;6.686;2023-04-25T03:57:56;100659.25;;;7.26;100.00
13068;BME280;6600;51.362;6.686;2023-04-25T04:00:23;100660.28;;;7.25;100.00
13068;BME280;6600;51.362;6.686;2023-04-25T04:02:48;100663.94;;;7.24;100.00
13068;BME280;6600;51.362;6.686;2023-04-25T04:05:13;100671.31;;;7.22;100.00
13068;BME280;6600;51.362;6.686;2023-04-25T04:07:39;100663.06;;;7.17;100.00
13068;BME280;6600;51.362;6.686;2023-04-25T04:10:07;100666.00;;;7.22;100.00
13068;BME280;6600;51.362;6.686;2023-04-25T04:12:33;100668.03;;;7.20;100.00
13068;BME280;6600;51.362;6.686;2023-04-25T04:14:58;100663.88;;;7.11;100.00
13068;BME280;6600;51.362;6.686;2023-04-25T04:17:23;100661.84;;;7.13;100.00
13068;BME280;6600;51.362;6.686;2023-04-25T04:19:49;100673.25;;;7.07;100.00
13068;BME280;6600;51.362;6.686;2023-04-25T04:22:14;100672.91;;;7.10;100.00
13068;BME280;6600;51.362;6.686;2023-04-25T04:24:40;100682.69;;;7.03;100.00
13068;BME280;6600;51.362;6.686;2023-04-25T04:27:09;100688.00;;;7.03;100.00
13068;BME280;6600;51.362;6.686;2023-04-25T04:29:34;100680.25;;;7.08;100.00
13068;BME280;6600;51.362;6.686;2023-04-25T04:32:00;100688.22;;;7.08;100.00
13068;BME280;6600;51.362;6.686;2023-04-25T04:34:26;100688.88;;;7.10;100.00
13068;BME280;6600;51.362;6.686;2023-04-25T04:36:52;100693.81;;;7.13;100.00
13068;BME280;6600;51.362;6.686;2023-04-25T04:39:17;100693.88;;;7.20;100.00
13068;BME280;6600;51.362;6.686;2023-04-25T04:41:42;100696.22;;;7.08;100.00
13068;BME280;6600;51.362;6.686;2023-04-25T04:44:08;100698.06;;;7.07;100.00
13068;BME280;6600;51.362;6.686;2023-04-25T04:46:34;100701.94;;;7.05;100.00
13068;BME280;6600;51.362;6.686;2023-04-25T04:49:04;100705.63;;;7.04;100.00
13068;BME280;6600;51.362;6.686;2023-04-25T04:51:29;100704.56;;;6.98;100.00
13068;BME280;6600;51.362;6.686;2023-04-25T04:53:56;100707.28;;;7.05;100.00
13068;BME280;6600;51.362;6.686;2023-04-25T04:56:23;100706.50;;;7.11;100.00
13068;BME280;6600;51.362;6.686;2023-04-25T04:58:50;100708.53;;;7.09;100.00
13068;BME280;6600;51.362;6.686;2023-04-25T05:01:16;100715.88;;;7.07;100.00
13068;BME280;6600;51.362;6.686;2023-04-25T05:03:41;100717.81;;;7.13;100.00
13068;BME280;6600;51.362;6.686;2023-04-25T05:06:06;100724.19;;;7.19;100.00
13068;BME280;6600;51.362;6.686;2023-04-25T05:08:32;100727.56;;;7.27;100.00
13068;BME280;6600;51.362;6.686;2023-04-25T05:10:57;100736.16;;;7.29;100.00
13068;BME280;6600;51.362;6.686;2023-04-25T05:13:22;100729.69;;;7.45;100.00
13068;BME280;6600;51.362;6.686;2023-04-25T05:15:47;100731.88;;;7.62;99.06
13068;BME280;6600;51.362;6.686;2023-04-25T05:18:13;100739.72;;;7.71;98.84
13068;BME280;6600;51.362;6.686;2023-04-25T05:20:38;100743.41;;;7.70;97.70
13068;BME280;6600;51.362;6.686;2023-04-25T05:23:03;100741.03;;;7.81;96.69
13068;BME280;6600;51.362;6.686;2023-04-25T05:25:29;100740.88;;;7.89;96.16
13068;BME280;6600;51.362;6.686;2023-04-25T05:27:54;100740.81;;;7.83;95.95
13068;BME280;6600;51.362;6.686;2023-04-25T05:30:20;100750.25;;;7.79;95.48
13068;BME280;6600;51.362;6.686;2023-04-25T05:32:45;100744.59;;;7.95;95.49
13068;BME280;6600;51.362;6.686;2023-04-25T05:35:11;100750.25;;;8.20;95.58
13068;BME280;6600;51.362;6.686;2023-04-25T05:37:37;100761.19;;;8.31;94.33
13068;BME280;6600;51.362;6.686;2023-04-25T05:40:02;100751.16;;;8.40;93.12
13068;BME280;6600;51.362;6.686;2023-04-25T05:42:32;100752.81;;;8.34;92.59
13068;BME280;6600;51.362;6.686;2023-04-25T05:44:57;100765.53;;;8.39;92.42
13068;BME280;6600;51.362;6.686;2023-04-25T05:47:22;100759.28;;;8.19;92.15
13068;BME280;6600;51.362;6.686;2023-04-25T05:49:48;100769.97;;;8.25;92.73
13068;BME280;6600;51.362;6.686;2023-04-25T05:52:13;100768.53;;;7.82;92.02
13068;BME280;6600;51.362;6.686;2023-04-25T05:54:40;100776.97;;;7.85;92.85
13068;BME280;6600;51.362;6.686;2023-04-25T05:57:05;100782.03;;;7.80;93.60
13068;BME280;6600;51.362;6.686;2023-04-25T05:59:31;100779.66;;;7.92;93.88
13068;BME280;6600;51.362;6.686;2023-04-25T06:01:56;100783.75;;;7.88;94.13
13068;BME280;6600;51.362;6.686;2023-04-25T06:04:21;100779.28;;;7.95;94.30
13068;BME280;6600;51.362;6.686;2023-04-25T06:06:47;100794.25;;;7.61;94.02
13068;BME280;6600;51.362;6.686;2023-04-25T06:09:12;100789.88;;;7.82;94.36
13068;BME280;6600;51.362;6.686;2023-04-25T06:11:37;100791.00;;;7.73;93.64
13068;BME280;6600;51.362;6.686;2023-04-25T06:14:03;100796.59;;;7.78;93.89
13068;BME280;6600;51.362;6.686;2023-04-25T06:16:28;100803.25;;;7.60;93.85
13068;BME280;6600;51.362;6.686;2023-04-25T06:18:53;100801.31;;;7.76;94.33
13068;BME280;6600;51.362;6.686;2023-04-25T06:21:19;100811.25;;;7.88;94.22
13068;BME280;6600;51.362;6.686;2023-04-25T06:23:44;100808.28;;;7.77;93.32
13068;BME280;6600;51.362;6.686;2023-04-25T06:26:09;100809.56;;;7.81;93.20
13068;BME280;6600;51.362;6.686;2023-04-25T06:28:35;100826.44;;;7.88;93.58
13068;BME280;6600;51.362;6.686;2023-04-25T06:31:00;100811.22;;;8.16;94.02
13068;BME280;6600;51.362;6.686;2023-04-25T06:33:25;100806.41;;;8.05;92.18
13068;BME280;6600;51.362;6.686;2023-04-25T06:35:51;100805.41;;;8.40;92.31
13068;BME280;6600;51.362;6.686;2023-04-25T06:38:17;100811.19;;;8.50;91.68
13068;BME280;6600;51.362;6.686;2023-04-25T06:40:42;100812.03;;;8.57;91.08
13068;BME280;6600;51.362;6.686;2023-04-25T06:43:07;100815.78;;;8.76;90.27
13068;BME280;6600;51.362;6.686;2023-04-25T06:45:33;100819.50;;;8.75;89.69
13068;BME280;6600;51.362;6.686;2023-04-25T06:47:58;100817.38;;;8.57;88.25
13068;BME280;6600;51.362;6.686;2023-04-25T06:50:24;100816.81;;;8.75;88.33
13068;BME280;6600;51.362;6.686;2023-04-25T06:52:49;100820.53;;;8.81;87.57
13068;BME280;6600;51.362;6.686;2023-04-25T06:55:14;100820.53;;;8.87;87.19
13068;BME280;6600;51.362;6.686;2023-04-25T06:57:40;100821.63;;;9.12;87.26
13068;BME280;6600;51.362;6.686;2023-04-25T07:00:06;100831.91;;;9.16;87.04
13068;BME280;6600;51.362;6.686;2023-04-25T07:02:34;100833.59;;;9.23;87.18
13068;BME280;6600;51.362;6.686;2023-04-25T07:04:59;100831.50;;;9.12;86.72
13068;BME280;6600;51.362;6.686;2023-04-25T07:07:25;100837.16;;;8.76;86.76
13068;BME280;6600;51.362;6.686;2023-04-25T07:09:51;100844.28;;;9.23;87.37
13068;BME280;6600;51.362;6.686;2023-04-25T07:12:16;100836.47;;;9.35;86.03
13068;BME280;6600;51.362;6.686;2023-04-25T07:14:41;100848.41;;;9.58;86.56
13068;BME280;6600;51.362;6.686;2023-04-25T07:17:06;100842.22;;;9.38;85.18
13068;BME280;6600;51.362;6.686;2023-04-25T07:19:32;100848.63;;;9.70;85.02
13068;BME280;6600;51.362;6.686;2023-04-25T07:21:58;100850.88;;;9.93;84.13
13068;BME280;6600;51.362;6.686;2023-04-25T07:24:23;100848.59;;;9.90;83.06
13068;BME280;6600;51.362;6.686;2023-04-25T07:26:49;100849.66;;;9.89;83.07
13068;BME280;6600;51.362;6.686;2023-04-25T07:29:14;100852.72;;;9.79;82.83
13068;BME280;6600;51.362;6.686;2023-04-25T07:31:39;100853.75;;;9.58;83.13
13068;BME280;6600;51.362;6.686;2023-04-25T07:34:05;100850.06;;;9.66;83.38
13068;BME280;6600;51.362;6.686;2023-04-25T07:36:31;100858.09;;;9.86;82.56
13068;BME280;6600;51.362;6.686;2023-04-25T07:38:56;100864.41;;;10.24;82.27
13068;BME280;6600;51.362;6.686;2023-04-25T07:41:21;100861.56;;;10.19;79.37
13068;BME280;6600;51.362;6.686;2023-04-25T07:43:47;100862.00;;;9.77;77.42
13068;BME280;6600;51.362;6.686;2023-04-25T07:46:12;100866.91;;;9.34;78.46
13068;BME280;6600;51.362;6.686;2023-04-25T07:48:37;100878.03;;;9.44;78.67
13068;BME280;6600;51.362;6.686;2023-04-25T07:51:03;100871.44;;;9.46;78.83
13068;BME280;6600;51.362;6.686;2023-04-25T07:53:30;100882.75;;;9.48;78.87
13068;BME280;6600;51.362;6.686;2023-04-25T07:55:56;100882.56;;;9.50;79.51
13068;BME280;6600;51.362;6.686;2023-04-25T07:58:21;100881.34;;;9.79;78.83
13068;BME280;6600;51.362;6.686;2023-04-25T08:00:47;100883.41;;;10.03;78.62
13068;BME280;6600;51.362;6.686;2023-04-25T08:03:13;100886.28;;;10.21;79.27
13068;BME280;6600;51.362;6.686;2023-04-25T08:05:38;100890.38;;;10.17;78.04
13068;BME280;6600;51.362;6.686;2023-04-25T08:08:04;100890.38;;;10.17;78.27
13068;BME280;6600;51.362;6.686;2023-04-25T08:10:31;100895.34;;;9.81;78.18
13068;BME280;6600;51.362;6.686;2023-04-25T08:12:56;100903.19;;;9.89;76.93
13068;BME280;6600;51.362;6.686;2023-04-25T08:15:22;100902.34;;;9.88;76.62
13068;BME280;6600;51.362;6.686;2023-04-25T08:17:47;100914.06;;;9.74;75.84
13068;BME280;6600;51.362;6.686;2023-04-25T08:20:13;100909.91;;;9.52;76.13
13068;BME280;6600;51.362;6.686;2023-04-25T08:22:38;100924.53;;;9.62;75.94
13068;BME280;6600;51.362;6.686;2023-04-25T08:25:04;100913.47;;;9.98;75.93
13068;BME280;6600;51.362;6.686;2023-04-25T08:27:29;100915.47;;;10.42;75.44
13068;BME280;6600;51.362;6.686;2023-04-25T08:29:55;100914.34;;;10.76;75.82
13068;BME280;6600;51.362;6.686;2023-04-25T08:32:20;100922.41;;;10.70;73.37
13068;BME280;6600;51.362;6.686;2023-04-25T08:34:46;100921.63;;;10.62;73.42
13068;BME280;6600;51.362;6.686;2023-04-25T08:37:12;100922.03;;;10.59;74.96
13068;BME280;6600;51.362;6.686;2023-04-25T08:39:37;100925.94;;;10.63;74.98
13068;BME280;6600;51.362;6.686;2023-04-25T08:42:06;100929.84;;;10.68;73.25
13068;BME280;6600;51.362;6.686;2023-04-25T08:44:34;100934.47;;;10.41;73.88
13068;BME280;6600;51.362;6.686;2023-04-25T08:47:03;100936.09;;;10.35;74.05
13068;BME280;6600;51.362;6.686;2023-04-25T08:49:31;100942.09;;;10.18;74.24
13068;BME280;6600;51.362;6.686;2023-04-25T08:52:01;100946.81;;;10.35;75.19
13068;BME280;6600;51.362;6.686;2023-04-25T08:54:28;100953.00;;;10.09;74.33
13068;BME280;6600;51.362;6.686;2023-04-25T08:56:54;100949.72;;;10.14;74.99
13068;BME280;6600;51.362;6.686;2023-04-25T08:59:23;100952.16;;;9.83;72.86
13068;BME280;6600;51.362;6.686;2023-04-25T09:01:49;100957.72;;;9.75;73.96
13068;BME280;6600;51.362;6.686;2023-04-25T09:04:15;100961.97;;;9.49;75.83
13068;BME280;6600;51.362;6.686;2023-04-25T09:06:40;100964.81;;;9.28;75.63
13068;BME280;6600;51.362;6.686;2023-04-25T09:09:07;100972.28;;;9.59;75.16
13068;BME280;6600;51.362;6.686;2023-04-25T09:11:34;100974.81;;;9.87;72.81
13068;BME280;6600;51.362;6.686;2023-04-25T09:14:15;100970.72;;;10.43;72.19
13068;BME280;6600;51.362;6.686;2023-04-25T09:19:26;100997.00;;;10.92;68.99
13068;BME280;6600;51.362;6.686;2023-04-25T09:21:56;100985.25;;;11.44;70.52
13068;BME280;6600;51.362;6.686;2023-04-25T09:27:09;101004.16;;;11.56;68.38
13068;BME280;6600;51.362;6.686;2023-04-25T09:29:40;100995.41;;;11.74;66.75
13068;BME280;6600;51.362;6.686;2023-04-25T09:32:19;100997.91;;;12.00;67.52
13068;BME280;6600;51.362;6.686;2023-04-25T09:34:47;100992.72;;;11.74;66.18
13068;BME280;6600;51.362;6.686;2023-04-25T09:37:17;100996.00;;;11.76;67.43
13068;BME280;6600;51.362;6.686;2023-04-25T09:39:45;101002.50;;;11.61;66.17
13068;BME280;6600;51.362;6.686;2023-04-25T09:42:11;101013.63;;;11.14;65.67
13068;BME280;6600;51.362;6.686;2023-04-25T09:44:36;101013.06;;;10.99;66.37
13068;BME280;6600;51.362;6.686;2023-04-25T09:47:02;101012.16;;;11.18;66.97
13068;BME280;6600;51.362;6.686;2023-04-25T09:49:28;101013.63;;;11.14;68.31
13068;BME280;6600;51.362;6.686;2023-04-25T09:51:54;101012.34;;;11.30;68.19
13068;BME280;6600;51.362;6.686;2023-04-25T09:54:21;101025.34;;;11.26;65.84
13068;BME280;6600;51.362;6.686;2023-04-25T09:56:48;101017.50;;;11.25;66.34
13068;BME280;6600;51.362;6.686;2023-04-25T09:59:14;101029.06;;;11.25;66.16
13068;BME280;6600;51.362;6.686;2023-04-25T10:01:42;101039.38;;;11.28;66.08
13068;BME280;6600;51.362;6.686;2023-04-25T10:04:10;101039.69;;;10.94;65.39
13068;BME280;6600;51.362;6.686;2023-04-25T10:06:37;101036.56;;;10.97;65.27
13068;BME280;6600;51.362;6.686;2023-04-25T10:09:03;101029.59;;;10.83;65.63
13068;BME280;6600;51.362;6.686;2023-04-25T10:11:30;101045.06;;;10.81;67.42
13068;BME280;6600;51.362;6.686;2023-04-25T10:13:56;101045.66;;;10.96;66.42
13068;BME280;6600;51.362;6.686;2023-04-25T10:16:21;101039.38;;;11.28;66.13
13068;BME280;6600;51.362;6.686;2023-04-25T10:18:48;101041.47;;;11.71;65.26
13068;BME280;6600;51.362;6.686;2023-04-25T10:21:15;101049.31;;;12.10;64.17
13068;BME280;6600;51.362;6.686;2023-04-25T10:23:42;101047.34;;;12.48;62.08
13068;BME280;6600;51.362;6.686;2023-04-25T10:26:08;101053.81;;;12.16;63.07
13068;BME280;6600;51.362;6.686;2023-04-25T10:29:00;101052.44;;;12.32;63.47
13068;BME280;6600;51.362;6.686;2023-04-25T10:31:26;101040.97;;;12.18;62.16
13068;BME280;6600;51.362;6.686;2023-04-25T10:33:53;101039.31;;;12.17;63.19
13068;BME280;6600;51.362;6.686;2023-04-25T10:36:20;101048.19;;;11.93;63.50
13068;BME280;6600;51.362;6.686;2023-04-25T10:38:50;101055.03;;;12.13;67.77
13068;BME280;6600;51.362;6.686;2023-04-25T10:41:17;101046.22;;;11.62;64.50
13068;BME280;6600;51.362;6.686;2023-04-25T10:43:44;101052.13;;;11.39;65.91
13068;BME280;6600;51.362;6.686;2023-04-25T10:46:18;101045.38;;;11.75;69.36
13068;BME280;6600;51.362;6.686;2023-04-25T10:49:01;101038.38;;;11.74;67.47
13068;BME280;6600;51.362;6.686;2023-04-25T10:51:31;101043.16;;;12.03;69.63
13068;BME280;6600;51.362;6.686;2023-04-25T10:56:29;101040.84;;;12.31;65.39
13068;BME280;6600;51.362;6.686;2023-04-25T10:59:16;101040.81;;;12.38;63.83
13068;BME280;6600;51.362;6.686;2023-04-25T11:01:51;101046.22;;;12.31;63.99
13068;BME280;6600;51.362;6.686;2023-04-25T11:04:31;101045.63;;;12.29;64.25
13068;BME280;6600;51.362;6.686;2023-04-25T11:07:07;101045.47;;;12.49;64.24
13068;BME280;6600;51.362;6.686;2023-04-25T11:09:38;101050.06;;;12.17;64.42
13068;BME280;6600;51.362;6.686;2023-04-25T11:12:04;101041.53;;;11.95;64.32
13068;BME280;6600;51.362;6.686;2023-04-25T11:14:30;101047.44;;;12.35;66.88
13068;BME280;6600;51.362;6.686;2023-04-25T11:16:57;101050.63;;;12.50;64.07
13068;BME280;6600;51.362;6.686;2023-04-25T11:19:23;101061.16;;;12.77;63.06
13068;BME280;6600;51.362;6.686;2023-04-25T11:21:48;101052.75;;;12.17;63.38
13068;BME280;6600;51.362;6.686;2023-04-25T11:24:16;101062.06;;;12.14;63.95
13068;BME280;6600;51.362;6.686;2023-04-25T11:26:42;101054.38;;;11.87;66.57
13068;BME280;6600;51.362;6.686;2023-04-25T11:29:08;101053.44;;;11.24;70.46
13068;BME280;6600;51.362;6.686;2023-04-25T11:31:33;101054.69;;;11.14;72.45
13068;BME280;6600;51.362;6.686;2023-04-25T11:33:59;101059.31;;;10.61;73.07
13068;BME280;6600;51.362;6.686;2023-04-25T11:36:25;101058.47;;;10.22;74.23
13068;BME280;6600;51.362;6.686;2023-04-25T11:38:51;101061.56;;;10.25;75.72
13068;BME280;6600;51.362;6.686;2023-04-25T11:41:17;101060.97;;;10.17;76.49
13068;BME280;6600;51.362;6.686;2023-04-25T11:43:43;101063.84;;;10.28;79.07
13068;BME280;6600;51.362;6.686;2023-04-25T11:46:09;101064.66;;;10.22;78.69
13068;BME280;6600;51.362;6.686;2023-04-25T11:48:41;101064.59;;;9.96;79.26
13068;BME280;6600;51.362;6.686;2023-04-25T11:51:07;101061.88;;;9.83;79.57
13068;BME280;6600;51.362;6.686;2023-04-25T11:53:33;101067.00;;;9.64;80.37
13068;BME280;6600;51.362;6.686;2023-04-25T11:55:58;101075.19;;;9.63;80.63
13068;BME280;6600;51.362;6.686;2023-04-25T11:58:25;101073.34;;;9.57;81.91
13068;BME280;6600;51.362;6.686;2023-04-25T12:00:51;101096.94;;;9.40;85.25
13068;BME280;6600;51.362;6.686;2023-04-25T12:03:17;101098.28;;;9.23;86.72
13068;BME280;6600;51.362;6.686;2023-04-25T12:05:45;101090.31;;;9.36;88.70
13068;BME280;6600;51.362;6.686;2023-04-25T12:08:14;101091.22;;;9.56;88.28
13068;BME280;6600;51.362;6.686;2023-04-25T12:10:41;101093.22;;;9.89;88.00
13068;BME280;6600;51.362;6.686;2023-04-25T12:13:23;101094.69;;;10.11;86.77
13068;BME280;6600;51.362;6.686;2023-04-25T12:15:50;101102.28;;;10.01;84.17
13068;BME280;6600;51.362;6.686;2023-04-25T12:18:19;101094.69;;;10.04;82.89
13068;BME280;6600;51.362;6.686;2023-04-25T12:20:45;101097.22;;;10.32;82.83
13068;BME280;6600;51.362;6.686;2023-04-25T12:23:11;101094.78;;;10.50;82.39
13068;BME280;6600;51.362;6.686;2023-04-25T12:25:42;101096.00;;;10.41;79.70
13068;BME280;6600;51.362;6.686;2023-04-25T12:28:20;101093.34;;;10.68;78.97
13068;BME280;6600;51.362;6.686;2023-04-25T12:31:05;101098.06;;;10.92;78.20
13068;BME280;6600;51.362;6.686;2023-04-25T12:33:35;101097.00;;;11.06;75.31
13068;BME280;6600;51.362;6.686;2023-04-25T12:36:02;101095.44;;;11.43;75.48
13068;BME280;6600;51.362;6.686;2023-04-25T12:38:38;101083.69;;;11.95;75.26
13068;BME280;6600;51.362;6.686;2023-04-25T12:41:04;101087.59;;;12.30;73.72
13068;BME280;6600;51.362;6.686;2023-04-25T12:43:29;101085.75;;;11.99;68.45
13068;BME280;6600;51.362;6.686;2023-04-25T12:45:56;101092.34;;;11.97;69.72
13068;BME280;6600;51.362;6.686;2023-04-25T12:48:22;101092.50;;;11.57;70.11
13068;BME280;6600;51.362;6.686;2023-04-25T12:50:48;101102.47;;;11.44;69.42
13068;BME280;6600;51.362;6.686;2023-04-25T12:53:15;101099.94;;;11.55;70.15
13068;BME280;6600;51.362;6.686;2023-04-25T12:55:41;101102.41;;;11.57;71.15
13068;BME280;6600;51.362;6.686;2023-04-25T12:58:06;101104.88;;;11.65;70.69
13068;BME280;6600;51.362;6.686;2023-04-25T13:00:32;101106.50;;;11.73;70.74
13068;BME280;6600;51.362;6.686;2023-04-25T13:02:58;101101.34;;;11.78;70.86
13068;BME280;6600;51.362;6.686;2023-04-25T13:05:24;101100.06;;;12.18;72.18
13068;BME280;6600;51.362;6.686;2023-04-25T13:07:50;101102.41;;;12.39;70.30
13068;BME280;6600;51.362;6.686;2023-04-25T13:10:16;101100.56;;;12.64;70.28